Terminal Aerodrome Forecast
Issued by NWS

Home | Current Version | Previous Version | Text Only | Print | Product List | Glossary On
Versions: 1 2 3 4 5 6 7 8 9 10 11 12 13 14
093
FTUS41 KCAR 220708 AAA
TAFPQI
TAF AMD
KPQI 220708Z 2207/2306 33003KT P6SM SCT100
      TEMPO 2207/2208 1/2SM FG VV002
     FM220800 30003KT P6SM SCT250
     FM221500 31010G18KT P6SM FEW050
     FM230000 33004KT P6SM SKC=

USA.gov is the U.S. government's official web portal to all federal, state and local government web resources and services.